createdAt,value
2024-02-16T00:00:24.723Z,8.80
2024-02-16T00:01:24.695Z,8.79
2024-02-16T00:02:24.642Z,8.77
2024-02-16T00:03:24.602Z,8.76
2024-02-16T00:04:24.597Z,8.74
2024-02-16T00:05:24.566Z,8.73
2024-02-16T00:06:24.621Z,8.72
2024-02-16T00:07:24.659Z,8.71
2024-02-16T00:08:24.544Z,8.70
2024-02-16T00:09:24.595Z,8.69
2024-02-16T00:10:24.508Z,8.69
2024-02-16T00:11:24.538Z,8.69
2024-02-16T00:12:24.560Z,8.69
2024-02-16T00:13:24.475Z,8.68
2024-02-16T00:14:24.453Z,8.68
2024-02-16T00:15:24.484Z,8.67
2024-02-16T00:16:24.442Z,8.67
2024-02-16T00:17:24.426Z,8.67
2024-02-16T00:18:24.663Z,8.67
2024-02-16T00:19:24.537Z,8.67
2024-02-16T00:20:24.390Z,8.68
2024-02-16T00:21:24.419Z,8.68
2024-02-16T00:22:24.380Z,8.69
2024-02-16T00:23:24.354Z,8.69
2024-02-16T00:24:24.413Z,8.70
2024-02-16T00:25:24.338Z,8.70
2024-02-16T00:26:24.318Z,8.70
2024-02-16T00:27:24.424Z,8.70
2024-02-16T00:28:24.322Z,8.70
2024-02-16T00:29:24.280Z,8.71
2024-02-16T00:30:24.348Z,8.71
2024-02-16T00:31:24.265Z,8.70
2024-02-16T00:32:24.229Z,8.70
2024-02-16T00:33:24.275Z,8.69
2024-02-16T00:34:24.428Z,8.68
2024-02-16T00:35:24.184Z,8.67
2024-02-16T00:36:24.237Z,8.67
2024-02-16T00:37:24.168Z,8.66
2024-02-16T00:38:24.172Z,8.65
2024-02-16T00:39:24.196Z,8.65
2024-02-16T00:40:24.178Z,8.65
2024-02-16T00:41:24.141Z,8.64
2024-02-16T00:42:24.190Z,8.64
2024-02-16T00:43:24.098Z,8.63
2024-02-16T00:44:24.132Z,8.63
2024-02-16T00:45:24.210Z,8.63
2024-02-16T00:46:24.316Z,8.64
2024-02-16T00:47:24.082Z,8.65
2024-02-16T00:48:24.256Z,8.66
2024-02-16T00:49:24.146Z,8.66
2024-02-16T00:50:24.032Z,8.66
2024-02-16T00:51:24.022Z,8.65
2024-02-16T00:52:24.011Z,8.64
2024-02-16T00:53:24.009Z,8.63
2024-02-16T00:54:24.075Z,8.61
2024-02-16T00:55:23.991Z,8.60
2024-02-16T00:56:23.942Z,8.59
2024-02-16T00:57:24.044Z,8.58
2024-02-16T00:58:23.910Z,8.58
2024-02-16T00:59:23.933Z,8.58
2024-02-16T01:00:23.924Z,8.58
2024-02-16T01:01:24.026Z,8.58
2024-02-16T01:02:25.444Z,8.58
2024-02-16T01:03:23.961Z,8.59
2024-02-16T01:04:23.862Z,8.59
2024-02-16T01:05:23.841Z,8.60
2024-02-16T01:06:23.851Z,8.60
2024-02-16T01:07:23.832Z,8.60
2024-02-16T01:08:23.816Z,8.60
2024-02-16T01:09:23.790Z,8.60
2024-02-16T01:10:23.767Z,8.59
2024-02-16T01:11:23.816Z,8.58
2024-02-16T01:12:23.843Z,8.57
2024-02-16T01:13:23.721Z,8.56
2024-02-16T01:14:23.739Z,8.54
2024-02-16T01:15:23.787Z,8.53
2024-02-16T01:16:23.747Z,8.51
2024-02-16T01:17:23.688Z,8.49
2024-02-16T01:18:23.787Z,8.48
2024-02-16T01:19:23.774Z,8.47
2024-02-16T01:20:23.675Z,8.45
2024-02-16T01:21:23.696Z,8.43
2024-02-16T01:22:23.632Z,8.38
2024-02-16T01:23:23.660Z,8.34
2024-02-16T01:24:23.680Z,8.29
2024-02-16T01:25:23.611Z,8.24
2024-02-16T01:26:23.583Z,8.18
2024-02-16T01:27:23.568Z,8.13
2024-02-16T01:28:23.545Z,8.09
2024-02-16T01:29:23.545Z,8.06
2024-02-16T01:30:23.555Z,8.05
2024-02-16T01:31:23.528Z,8.04
2024-02-16T01:32:23.513Z,8.03
2024-02-16T01:33:23.589Z,8.03
2024-02-16T01:34:23.580Z,8.04
2024-02-16T01:35:23.494Z,8.05
2024-02-16T01:36:23.565Z,8.06
2024-02-16T01:37:23.471Z,8.06
2024-02-16T01:38:23.418Z,8.06
2024-02-16T01:39:23.442Z,8.07
2024-02-16T01:40:23.392Z,8.07
2024-02-16T01:41:23.413Z,8.07
2024-02-16T01:42:23.381Z,8.07
2024-02-16T01:43:23.376Z,8.07
2024-02-16T01:44:23.343Z,8.07
2024-02-16T01:45:23.381Z,8.07
2024-02-16T01:46:23.374Z,8.07
2024-02-16T01:47:23.329Z,8.07
2024-02-16T01:48:23.385Z,8.06
2024-02-16T01:49:23.489Z,8.05
2024-02-16T01:50:23.301Z,8.05
2024-02-16T01:51:23.283Z,8.04
2024-02-16T01:52:23.266Z,8.03
2024-02-16T01:53:23.244Z,8.03
2024-02-16T01:54:23.271Z,8.03
2024-02-16T01:55:23.243Z,8.03
2024-02-16T01:56:23.226Z,8.03
2024-02-16T01:57:23.280Z,8.03
2024-02-16T01:58:23.221Z,8.03
2024-02-16T01:59:23.185Z,8.01
2024-02-16T02:00:23.267Z,8.00
2024-02-16T02:01:23.186Z,7.99
2024-02-16T02:02:23.168Z,7.99
2024-02-16T02:03:23.147Z,7.99
2024-02-16T02:04:23.151Z,8.01
2024-02-16T02:05:23.330Z,8.02
2024-02-16T02:06:23.387Z,8.02
2024-02-16T02:07:23.281Z,8.02
2024-02-16T02:08:23.081Z,8.02
2024-02-16T02:09:23.127Z,8.01
2024-02-16T02:10:23.039Z,8.01
2024-02-16T02:11:23.105Z,8.01
2024-02-16T02:12:23.021Z,8.00
2024-02-16T02:13:23.154Z,8.00
2024-02-16T02:14:23.019Z,8.01
2024-02-16T02:15:22.994Z,8.01
2024-02-16T02:16:22.991Z,8.01
2024-02-16T02:17:23.071Z,8.01
2024-02-16T02:18:23.081Z,8.01
2024-02-16T02:19:23.074Z,8.00
2024-02-16T02:20:23.019Z,8.00
2024-02-16T02:21:22.989Z,8.00
2024-02-16T02:22:22.898Z,8.00
2024-02-16T02:23:22.883Z,8.00
2024-02-16T02:24:22.878Z,8.00
2024-02-16T02:25:26.291Z,8.00
2024-02-16T02:26:22.876Z,8.00
2024-02-16T02:27:22.881Z,8.01
2024-02-16T02:28:22.837Z,8.01
2024-02-16T02:29:22.820Z,8.01
2024-02-16T02:30:22.833Z,8.01
2024-02-16T02:31:22.797Z,8.01
2024-02-16T02:32:22.800Z,8.01
2024-02-16T02:33:22.873Z,8.01
2024-02-16T02:34:22.815Z,8.00
2024-02-16T02:35:22.743Z,7.99
2024-02-16T02:36:22.798Z,7.98
2024-02-16T02:37:22.728Z,7.96
2024-02-16T02:38:22.696Z,7.95
2024-02-16T02:39:22.761Z,7.95
2024-02-16T02:40:22.720Z,7.95
2024-02-16T02:41:22.673Z,7.95
2024-02-16T02:42:22.720Z,7.94
2024-02-16T02:43:22.640Z,7.94
2024-02-16T02:44:22.616Z,7.93
2024-02-16T02:45:22.693Z,7.92
2024-02-16T02:46:22.605Z,7.92
2024-02-16T02:47:22.590Z,7.92
2024-02-16T02:48:22.771Z,7.92
2024-02-16T02:49:22.702Z,7.93
2024-02-16T02:50:22.625Z,7.93
2024-02-16T02:51:22.645Z,7.93
2024-02-16T02:52:22.540Z,7.92
2024-02-16T02:53:22.527Z,7.89
2024-02-16T02:54:22.575Z,7.82
2024-02-16T02:55:22.512Z,7.71
2024-02-16T02:56:22.476Z,7.59
2024-02-16T02:57:22.537Z,7.48
2024-02-16T02:58:22.472Z,7.37
2024-02-16T02:59:22.493Z,7.28
2024-02-16T03:00:22.470Z,7.21
2024-02-16T03:01:22.536Z,7.16
2024-02-16T03:02:22.414Z,7.12
2024-02-16T03:03:22.476Z,7.09
2024-02-16T03:04:22.462Z,7.07
2024-02-16T03:05:22.365Z,7.08
2024-02-16T03:06:22.465Z,7.07
2024-02-16T03:07:22.398Z,7.07
2024-02-16T03:08:22.323Z,7.06
2024-02-16T03:09:22.326Z,7.08
2024-02-16T03:10:22.428Z,7.10
2024-02-16T03:11:22.350Z,7.12
2024-02-16T03:12:22.313Z,7.13
2024-02-16T03:13:22.291Z,7.11
2024-02-16T03:14:22.250Z,7.08
2024-02-16T03:15:22.311Z,7.05
2024-02-16T03:16:22.221Z,7.05
2024-02-16T03:17:22.283Z,7.06
2024-02-16T03:18:22.366Z,7.08
2024-02-16T03:19:22.270Z,7.10
2024-02-16T03:20:22.196Z,7.14
2024-02-16T03:21:22.292Z,7.18
2024-02-16T03:22:22.178Z,7.22
2024-02-16T03:23:22.131Z,7.26
2024-02-16T03:24:22.177Z,7.29
2024-02-16T03:25:22.125Z,7.31
2024-02-16T03:26:22.084Z,7.32
2024-02-16T03:27:22.103Z,7.32
2024-02-16T03:28:22.097Z,7.32
2024-02-16T03:29:22.047Z,7.31
2024-02-16T03:30:22.073Z,7.30
2024-02-16T03:31:22.075Z,7.28
2024-02-16T03:32:22.060Z,7.26
2024-02-16T03:33:22.212Z,7.24
2024-02-16T03:34:22.242Z,7.23
2024-02-16T03:35:22.005Z,7.22
2024-02-16T03:36:22.018Z,7.23
2024-02-16T03:37:21.961Z,7.25
2024-02-16T03:38:21.939Z,7.28
2024-02-16T03:39:21.971Z,7.31
2024-02-16T03:40:21.919Z,7.33
2024-02-16T03:41:21.919Z,7.36
2024-02-16T03:42:21.978Z,7.39
2024-02-16T03:43:21.876Z,7.42
2024-02-16T03:44:21.896Z,7.44
2024-02-16T03:45:21.946Z,7.46
2024-02-16T03:46:21.832Z,7.47
2024-02-16T03:47:21.848Z,7.48
2024-02-16T03:48:21.900Z,7.49
2024-02-16T03:49:21.951Z,7.50
2024-02-16T03:50:21.817Z,7.51
2024-02-16T03:51:21.860Z,7.53
2024-02-16T03:52:21.761Z,7.54
2024-02-16T03:53:21.773Z,7.55
2024-02-16T03:54:21.778Z,7.57
2024-02-16T03:55:21.756Z,7.58
2024-02-16T03:56:21.705Z,7.59
2024-02-16T03:57:21.750Z,7.60
2024-02-16T03:58:21.680Z,7.61
2024-02-16T03:59:21.698Z,7.63
2024-02-16T04:00:21.761Z,7.64
2024-02-16T04:01:21.755Z,7.63
2024-02-16T04:02:21.646Z,7.62
2024-02-16T04:03:21.698Z,7.62
2024-02-16T04:04:21.652Z,7.62
2024-02-16T04:05:21.591Z,7.62
2024-02-16T04:06:21.657Z,7.62
2024-02-16T04:07:21.619Z,7.63
2024-02-16T04:08:21.553Z,7.63
2024-02-16T04:09:21.557Z,7.63
2024-02-16T04:10:21.528Z,7.62
2024-02-16T04:11:21.542Z,7.61
2024-02-16T04:12:21.561Z,7.61
2024-02-16T04:13:21.502Z,7.61
2024-02-16T04:14:21.478Z,7.61
2024-02-16T04:15:21.508Z,7.62
2024-02-16T04:16:21.817Z,7.64
2024-02-16T04:17:21.480Z,7.65
2024-02-16T04:18:21.523Z,7.64
2024-02-16T04:19:21.497Z,7.64
2024-02-16T04:20:21.441Z,7.65
2024-02-16T04:21:21.391Z,7.67
2024-02-16T04:22:21.374Z,7.68
2024-02-16T04:23:21.406Z,7.69
2024-02-16T04:24:21.439Z,7.72
2024-02-16T04:25:21.349Z,7.74
2024-02-16T04:26:21.336Z,7.75
2024-02-16T04:27:21.390Z,7.75
2024-02-16T04:28:21.341Z,7.75
2024-02-16T04:29:21.297Z,7.74
2024-02-16T04:30:21.288Z,7.73
2024-02-16T04:31:21.298Z,7.72
2024-02-16T04:32:21.262Z,7.71
2024-02-16T04:33:21.421Z,7.70
2024-02-16T04:34:21.342Z,7.68
2024-02-16T04:35:21.256Z,7.66
2024-02-16T04:36:21.267Z,7.64
2024-02-16T04:37:21.197Z,7.62
2024-02-16T04:38:21.186Z,7.60
2024-02-16T04:39:21.261Z,7.59
2024-02-16T04:40:21.150Z,7.58
2024-02-16T04:41:21.132Z,7.58
2024-02-16T04:42:21.169Z,7.57
2024-02-16T04:43:21.122Z,7.54
2024-02-16T04:44:21.128Z,7.52
2024-02-16T04:45:21.148Z,7.50
2024-02-16T04:46:21.075Z,7.49
2024-02-16T04:47:21.068Z,7.48
2024-02-16T04:48:21.104Z,7.47
2024-02-16T04:49:21.106Z,7.47
2024-02-16T04:50:21.094Z,7.48
2024-02-16T04:51:21.073Z,7.49
2024-02-16T04:52:21.000Z,7.50
2024-02-16T04:53:21.003Z,7.51
2024-02-16T04:54:21.069Z,7.51
2024-02-16T04:55:20.975Z,7.52
2024-02-16T04:56:20.962Z,7.52
2024-02-16T04:57:20.969Z,7.51
2024-02-16T04:59:31.875Z,8.59
2024-02-16T05:00:32.966Z,8.17
2024-02-16T05:01:32.936Z,7.89
2024-02-16T05:02:32.853Z,7.74
2024-02-16T05:03:32.991Z,7.66
2024-02-16T05:04:32.816Z,7.61
2024-02-16T05:05:32.864Z,7.56
2024-02-16T05:06:33.042Z,7.54
2024-02-16T05:07:32.946Z,7.52
2024-02-16T05:08:32.763Z,7.52
2024-02-16T05:09:32.866Z,7.53
2024-02-16T05:10:32.825Z,7.54
2024-02-16T05:11:32.753Z,7.55
2024-02-16T05:12:32.984Z,7.57
2024-02-16T05:13:32.694Z,7.58
2024-02-16T05:14:32.766Z,7.58
2024-02-16T05:15:32.851Z,7.57
2024-02-16T05:16:32.696Z,7.57
2024-02-16T05:17:32.681Z,7.57
2024-02-16T05:18:32.741Z,7.57
2024-02-16T05:19:32.684Z,7.58
2024-02-16T05:20:32.626Z,7.60
2024-02-16T05:21:32.620Z,7.62
2024-02-16T05:22:32.643Z,7.64
2024-02-16T05:23:32.576Z,7.66
2024-02-16T05:24:32.666Z,7.69
2024-02-16T05:25:32.553Z,7.72
2024-02-16T05:26:32.533Z,7.76
2024-02-16T05:27:32.615Z,7.79
2024-02-16T05:28:32.521Z,7.80
2024-02-16T05:29:32.496Z,7.82
2024-02-16T05:30:32.573Z,7.83
2024-02-16T05:31:32.481Z,7.83
2024-02-16T05:32:32.521Z,7.83
2024-02-16T05:33:32.624Z,7.84
2024-02-16T05:34:32.504Z,7.83
2024-02-16T05:35:32.492Z,7.82
2024-02-16T05:36:32.486Z,7.80
2024-02-16T05:37:32.395Z,7.78
2024-02-16T05:38:32.384Z,7.77
2024-02-16T05:39:32.569Z,7.76
2024-02-16T05:40:32.392Z,7.76
2024-02-16T05:41:32.340Z,7.76
2024-02-16T05:42:32.461Z,7.75
2024-02-16T05:43:32.346Z,7.75
2024-02-16T05:44:32.337Z,7.76
2024-02-16T05:45:32.411Z,7.79
2024-02-16T05:46:32.291Z,7.81
2024-02-16T05:47:32.305Z,7.83
2024-02-16T05:48:32.326Z,7.85
2024-02-16T05:49:32.348Z,7.84
2024-02-16T05:50:32.524Z,7.82
2024-02-16T05:51:32.281Z,7.80
2024-02-16T05:52:32.215Z,7.78
2024-02-16T05:53:32.221Z,7.76
2024-02-16T05:54:33.609Z,7.73
2024-02-16T05:55:32.187Z,7.71
2024-02-16T05:56:32.185Z,7.68
2024-02-16T05:57:32.318Z,7.67
2024-02-16T05:58:32.159Z,7.67
2024-02-16T05:59:32.156Z,7.67
2024-02-16T06:00:32.213Z,7.66
2024-02-16T06:01:32.173Z,7.67
2024-02-16T06:02:32.097Z,7.68
2024-02-16T06:03:32.188Z,7.69
2024-02-16T06:04:32.097Z,7.70
2024-02-16T06:05:32.044Z,7.72
2024-02-16T06:06:32.039Z,7.73
2024-02-16T06:07:32.143Z,7.74
2024-02-16T06:08:32.099Z,7.75
2024-02-16T06:09:32.093Z,7.75
2024-02-16T06:10:32.004Z,7.75
2024-02-16T06:11:32.127Z,7.76
2024-02-16T06:12:32.084Z,7.77
2024-02-16T06:13:31.998Z,7.79
2024-02-16T06:14:31.969Z,7.81
2024-02-16T06:15:32.016Z,7.83
2024-02-16T06:16:31.918Z,7.83
2024-02-16T06:17:31.971Z,7.84
2024-02-16T06:18:32.005Z,7.84
2024-02-16T06:19:31.949Z,7.85
2024-02-16T06:20:31.966Z,7.86
2024-02-16T06:21:31.941Z,7.86
2024-02-16T06:22:31.823Z,7.86
2024-02-16T06:23:31.818Z,7.86
2024-02-16T06:24:31.860Z,7.86
2024-02-16T06:25:31.853Z,7.87
2024-02-16T06:26:31.812Z,7.87
2024-02-16T06:27:31.856Z,7.87
2024-02-16T06:28:31.753Z,7.86
2024-02-16T06:29:31.735Z,7.86
2024-02-16T06:30:31.750Z,7.87
2024-02-16T06:31:31.698Z,7.87
2024-02-16T06:32:31.708Z,7.88
2024-02-16T06:33:31.863Z,7.89
2024-02-16T06:34:31.966Z,7.91
2024-02-16T06:35:31.657Z,7.92
2024-02-16T06:36:31.723Z,7.93
2024-02-16T06:37:31.645Z,7.93
2024-02-16T06:38:31.652Z,7.92
2024-02-16T06:39:31.637Z,7.92
2024-02-16T06:40:31.604Z,7.92
2024-02-16T06:41:31.565Z,7.92
2024-02-16T06:42:31.655Z,7.93
2024-02-16T06:43:31.558Z,7.94
2024-02-16T06:44:31.551Z,7.95
2024-02-16T06:45:31.663Z,7.97
2024-02-16T06:46:31.511Z,7.99
2024-02-16T06:47:31.544Z,8.01
2024-02-16T06:48:31.584Z,8.03
2024-02-16T06:49:31.488Z,8.06
2024-02-16T06:50:31.524Z,8.09
2024-02-16T06:51:31.496Z,8.12
2024-02-16T06:52:31.423Z,8.15
2024-02-16T06:53:31.450Z,8.18
2024-02-16T06:54:31.446Z,8.21
2024-02-16T06:55:31.393Z,8.23
2024-02-16T06:56:31.385Z,8.25
2024-02-16T06:57:31.400Z,8.27
2024-02-16T06:58:31.371Z,8.29
2024-02-16T06:59:31.376Z,8.31
2024-02-16T07:00:31.333Z,8.34
2024-02-16T07:01:31.372Z,8.36
2024-02-16T07:02:31.392Z,8.38
2024-02-16T07:03:31.399Z,8.40
2024-02-16T07:04:31.345Z,8.41
2024-02-16T07:05:33.005Z,8.43
2024-02-16T07:06:31.391Z,8.45
2024-02-16T07:07:31.268Z,8.46
2024-02-16T07:08:31.242Z,8.48
2024-02-16T07:09:31.235Z,8.50
2024-02-16T07:10:31.201Z,8.52
2024-02-16T07:11:31.222Z,8.54
2024-02-16T07:12:31.219Z,8.56
2024-02-16T07:13:31.187Z,8.58
2024-02-16T07:14:31.147Z,8.59
2024-02-16T07:15:31.320Z,8.61
2024-02-16T07:16:31.137Z,8.62
2024-02-16T07:17:31.184Z,8.63
2024-02-16T07:18:31.252Z,8.64
2024-02-16T07:19:31.200Z,8.64
2024-02-16T07:20:31.073Z,8.65
2024-02-16T07:21:31.127Z,8.66
2024-02-16T07:22:31.056Z,8.68
2024-02-16T07:23:31.072Z,8.69
2024-02-16T07:24:31.127Z,8.71
2024-02-16T07:25:31.005Z,8.73
2024-02-16T07:26:30.996Z,8.75
2024-02-16T07:27:31.002Z,8.76
2024-02-16T07:28:30.987Z,8.76
2024-02-16T07:29:30.957Z,8.77
2024-02-16T07:30:39.739Z,8.78
2024-02-16T07:31:30.932Z,8.79
2024-02-16T07:32:30.939Z,8.80
2024-02-16T07:33:31.248Z,8.81
2024-02-16T07:34:31.060Z,8.82
2024-02-16T07:35:30.874Z,8.82
2024-02-16T07:36:30.951Z,8.81
2024-02-16T07:37:30.857Z,8.81
2024-02-16T07:38:30.860Z,8.81
2024-02-16T07:39:30.921Z,8.82
2024-02-16T07:40:30.856Z,8.82
2024-02-16T07:41:30.804Z,8.83
2024-02-16T07:42:30.820Z,8.84
2024-02-16T07:43:30.803Z,8.84
2024-02-16T07:44:30.774Z,8.85
2024-02-16T07:45:30.866Z,8.86
2024-02-16T07:46:33.210Z,8.87
2024-02-16T07:47:30.784Z,8.88
2024-02-16T07:48:30.854Z,8.89
2024-02-16T07:49:30.917Z,8.90
2024-02-16T07:50:30.699Z,8.91
2024-02-16T07:51:30.693Z,8.92
2024-02-16T07:52:30.685Z,8.94
2024-02-16T07:53:30.645Z,8.95
2024-02-16T07:54:30.661Z,8.97
2024-02-16T07:55:30.713Z,8.99
2024-02-16T07:56:30.599Z,9.00
2024-02-16T07:57:30.656Z,9.01
2024-02-16T07:58:30.586Z,9.03
2024-02-16T07:59:30.581Z,9.04
2024-02-16T08:00:30.640Z,9.05
2024-02-16T08:01:30.650Z,9.06
2024-02-16T08:02:30.545Z,9.07
2024-02-16T08:03:30.605Z,9.07
2024-02-16T08:04:30.567Z,9.08
2024-02-16T08:05:30.641Z,9.09
2024-02-16T08:06:30.601Z,9.09
2024-02-16T08:07:30.588Z,9.10
2024-02-16T08:08:30.703Z,9.11
2024-02-16T08:09:30.504Z,9.11
2024-02-16T08:10:30.464Z,9.12
2024-02-16T08:11:30.521Z,9.12
2024-02-16T08:12:30.547Z,9.13
2024-02-16T08:13:30.431Z,9.14
2024-02-16T08:14:30.401Z,9.15
2024-02-16T08:15:30.463Z,9.16
2024-02-16T08:16:30.397Z,9.17
2024-02-16T08:17:30.402Z,9.19
2024-02-16T08:18:30.485Z,9.20
2024-02-16T08:19:30.422Z,9.21
2024-02-16T08:20:30.298Z,9.21
2024-02-16T08:21:30.352Z,9.23
2024-02-16T08:22:30.295Z,9.24
2024-02-16T08:23:30.271Z,9.25
2024-02-16T08:24:30.421Z,9.27
2024-02-16T08:25:30.274Z,9.29
2024-02-16T08:26:30.248Z,9.31
2024-02-16T08:27:30.300Z,9.32
2024-02-16T08:28:30.242Z,9.33
2024-02-16T08:29:30.231Z,9.33
2024-02-16T08:30:30.233Z,9.35
2024-02-16T08:31:30.227Z,9.36
2024-02-16T08:32:30.206Z,9.37
2024-02-16T08:33:30.298Z,9.38
2024-02-16T08:34:30.217Z,9.40
2024-02-16T08:35:30.169Z,9.41
2024-02-16T08:36:30.121Z,9.42
2024-02-16T08:37:30.117Z,9.43
2024-02-16T08:38:30.077Z,9.45
2024-02-16T08:39:30.083Z,9.46
2024-02-16T08:40:30.066Z,9.48
2024-02-16T08:41:30.068Z,9.50
2024-02-16T08:42:30.070Z,9.52
2024-02-16T08:43:30.037Z,9.54
2024-02-16T08:44:30.041Z,9.55
2024-02-16T08:45:30.005Z,9.57
2024-02-16T08:46:29.972Z,9.58
2024-02-16T08:47:30.000Z,9.60
2024-02-16T08:48:30.041Z,9.62
2024-02-16T08:49:30.085Z,9.63
2024-02-16T08:50:29.915Z,9.65
2024-02-16T08:51:29.974Z,9.66
2024-02-16T08:52:29.903Z,9.68
2024-02-16T08:53:29.884Z,9.69
2024-02-16T08:54:29.903Z,9.71
2024-02-16T08:55:29.857Z,9.73
2024-02-16T08:56:29.848Z,9.74
2024-02-16T08:57:29.926Z,9.76
2024-02-16T08:58:29.865Z,9.78
2024-02-16T08:59:29.837Z,9.80
2024-02-16T09:00:29.855Z,9.81
2024-02-16T09:01:29.862Z,9.83
2024-02-16T09:02:29.771Z,9.85
2024-02-16T09:03:29.854Z,9.86
2024-02-16T09:04:29.826Z,9.88
2024-02-16T09:05:29.780Z,9.91
2024-02-16T09:06:29.808Z,9.93
2024-02-16T09:07:29.732Z,9.97
2024-02-16T09:08:29.745Z,10.00
2024-02-16T09:09:29.880Z,10.02
2024-02-16T09:10:29.688Z,10.05
2024-02-16T09:11:29.795Z,10.08
2024-02-16T09:12:29.683Z,10.12
2024-02-16T09:13:33.736Z,10.15
2024-02-16T09:14:29.669Z,10.17
2024-02-16T09:15:29.675Z,10.19
2024-02-16T09:16:29.613Z,10.21
2024-02-16T09:17:29.657Z,10.23
2024-02-16T09:18:29.726Z,10.24
2024-02-16T09:19:29.738Z,10.25
2024-02-16T09:20:29.779Z,10.26
2024-02-16T09:21:29.777Z,10.26
2024-02-16T09:23:29.530Z,10.27
2024-02-16T09:24:29.536Z,10.28
2024-02-16T09:25:29.509Z,10.29
2024-02-16T09:26:29.525Z,10.29
2024-02-16T09:27:29.688Z,10.31
2024-02-16T09:28:30.447Z,10.31
2024-02-16T09:29:29.454Z,10.32
2024-02-16T09:30:29.469Z,10.32
2024-02-16T09:31:29.439Z,10.32
2024-02-16T09:32:29.414Z,10.32
2024-02-16T09:33:29.508Z,10.33
2024-02-16T09:34:29.588Z,10.34
2024-02-16T09:35:29.399Z,10.35
2024-02-16T09:36:29.474Z,10.36
2024-02-16T09:37:29.344Z,10.36
2024-02-16T09:38:29.429Z,10.37
2024-02-16T09:39:29.577Z,10.37
2024-02-16T09:40:29.301Z,10.37
2024-02-16T09:41:29.301Z,10.38
2024-02-16T09:42:29.332Z,10.38
2024-02-16T09:43:29.279Z,10.38
2024-02-16T09:44:29.273Z,10.39
2024-02-16T09:45:29.263Z,10.40
2024-02-16T09:46:29.225Z,10.41
2024-02-16T09:47:29.241Z,10.42
2024-02-16T09:48:29.527Z,10.43
2024-02-16T09:49:38.466Z,10.44
2024-02-16T09:50:29.247Z,10.45
2024-02-16T09:51:29.261Z,10.46
2024-02-16T09:52:29.162Z,10.47
2024-02-16T09:53:29.185Z,10.48
2024-02-16T09:54:29.165Z,10.49
2024-02-16T09:55:29.128Z,10.50
2024-02-16T09:56:29.138Z,10.51
2024-02-16T09:57:29.180Z,10.53
2024-02-16T09:58:29.085Z,10.56
2024-02-16T09:59:29.079Z,10.59
2024-02-16T10:00:29.181Z,10.62
2024-02-16T10:01:29.051Z,10.65
2024-02-16T10:02:29.068Z,10.67
2024-02-16T10:03:29.062Z,10.68
2024-02-16T10:04:29.955Z,10.69
2024-02-16T10:05:29.032Z,10.70
2024-02-16T10:06:29.075Z,10.71
2024-02-16T10:07:29.114Z,10.72
2024-02-16T10:08:28.982Z,10.72
2024-02-16T10:09:28.998Z,10.73
2024-02-16T10:10:28.953Z,10.75
2024-02-16T10:11:29.017Z,10.78
2024-02-16T10:12:28.977Z,10.82
2024-02-16T10:13:28.908Z,10.86
2024-02-16T10:14:28.904Z,10.92
2024-02-16T10:15:28.919Z,10.97
2024-02-16T10:16:29.072Z,11.01
2024-02-16T10:17:28.948Z,11.04
2024-02-16T10:18:29.051Z,11.07
2024-02-16T10:19:28.995Z,11.09
2024-02-16T10:20:28.846Z,11.12
2024-02-16T10:21:28.984Z,11.15
2024-02-16T10:22:28.781Z,11.18
2024-02-16T10:23:42.942Z,11.21
2024-02-16T10:24:28.819Z,11.24
2024-02-16T10:25:30.652Z,11.26
2024-02-16T10:26:28.732Z,11.28
2024-02-16T10:27:28.732Z,11.32
2024-02-16T10:28:28.713Z,11.37
2024-02-16T10:29:28.700Z,11.41
2024-02-16T10:30:28.701Z,11.46
2024-02-16T10:31:28.682Z,11.50
2024-02-16T10:32:28.721Z,11.53
2024-02-16T10:33:28.756Z,11.56
2024-02-16T10:34:28.673Z,11.58
2024-02-16T10:35:28.665Z,11.60
2024-02-16T10:36:28.637Z,11.62
2024-02-16T10:37:28.599Z,11.64
2024-02-16T10:38:28.595Z,11.68
2024-02-16T10:39:28.605Z,11.74
2024-02-16T10:40:28.594Z,11.81
2024-02-16T10:41:28.572Z,11.87
2024-02-16T10:42:28.669Z,11.90
2024-02-16T10:43:28.513Z,11.86
2024-02-16T10:44:28.500Z,11.79
2024-02-16T10:45:28.519Z,11.68
2024-02-16T10:46:28.485Z,11.55
2024-02-16T10:47:28.481Z,11.43
2024-02-16T10:48:28.570Z,11.34
2024-02-16T10:49:28.570Z,11.27
2024-02-16T10:50:28.536Z,11.21
2024-02-16T10:51:28.511Z,11.14
2024-02-16T10:52:28.416Z,11.07
2024-02-16T10:53:28.377Z,10.99
2024-02-16T10:54:28.430Z,10.91
2024-02-16T10:55:28.365Z,10.83
2024-02-16T10:56:28.357Z,10.76
2024-02-16T10:57:28.380Z,10.69
2024-02-16T10:58:28.337Z,10.63
2024-02-16T10:59:28.345Z,10.55
2024-02-16T11:00:28.367Z,10.47
2024-02-16T11:01:28.321Z,10.41
2024-02-16T11:02:28.269Z,10.38
2024-02-16T11:03:28.789Z,10.37
2024-02-16T11:04:28.354Z,10.35
2024-02-16T11:05:28.251Z,10.31
2024-02-16T11:06:28.287Z,10.28
2024-02-16T11:07:28.496Z,10.27
2024-02-16T11:08:28.190Z,10.27
2024-02-16T11:09:28.271Z,10.27
2024-02-16T11:10:28.179Z,10.26
2024-02-16T11:11:28.202Z,10.26
2024-02-16T11:12:28.203Z,10.25
2024-02-16T11:13:28.126Z,10.25
2024-02-16T11:14:28.123Z,10.23
2024-02-16T11:15:28.204Z,10.22
2024-02-16T11:16:30.827Z,10.24
2024-02-16T11:17:28.122Z,10.28
2024-02-16T11:18:28.163Z,10.32
2024-02-16T11:19:28.136Z,10.35
2024-02-16T11:20:28.078Z,10.39
2024-02-16T11:21:28.167Z,10.43
2024-02-16T11:22:28.056Z,10.46
2024-02-16T11:23:28.011Z,10.49
2024-02-16T11:24:28.054Z,10.50
2024-02-16T11:25:27.987Z,10.52
2024-02-16T11:26:27.995Z,10.54
2024-02-16T11:27:28.043Z,10.56
2024-02-16T11:28:27.958Z,10.58
2024-02-16T11:29:27.942Z,10.58
2024-02-16T11:30:27.977Z,10.59
2024-02-16T11:31:27.905Z,10.60
2024-02-16T11:32:27.937Z,10.61
2024-02-16T11:33:27.987Z,10.62
2024-02-16T11:34:28.341Z,10.63
2024-02-16T11:35:27.912Z,10.62
2024-02-16T11:36:27.898Z,10.63
2024-02-16T11:37:27.854Z,10.66
2024-02-16T11:38:27.825Z,10.71
2024-02-16T11:39:27.859Z,10.75
2024-02-16T11:40:27.814Z,10.80
2024-02-16T11:41:27.781Z,10.86
2024-02-16T11:42:27.810Z,10.93
2024-02-16T11:43:27.791Z,10.99
2024-02-16T11:44:27.777Z,11.04
2024-02-16T11:45:27.850Z,11.08
2024-02-16T11:46:27.718Z,11.11
2024-02-16T11:47:29.482Z,11.12
2024-02-16T11:48:27.893Z,11.11
2024-02-16T11:49:27.822Z,11.09
2024-02-16T11:50:27.694Z,11.09
2024-02-16T11:51:27.704Z,11.09
2024-02-16T11:52:27.652Z,11.11
2024-02-16T11:53:27.632Z,11.15
2024-02-16T11:54:27.675Z,11.21
2024-02-16T11:55:27.630Z,11.28
2024-02-16T11:56:27.615Z,11.36
2024-02-16T11:57:27.605Z,11.46
2024-02-16T11:58:27.617Z,11.54
2024-02-16T11:59:27.567Z,11.60
2024-02-16T12:00:27.643Z,11.64
2024-02-16T12:01:27.699Z,11.67
2024-02-16T12:02:27.529Z,11.72
2024-02-16T12:03:27.554Z,11.76
2024-02-16T12:04:27.506Z,11.79
2024-02-16T12:05:27.503Z,11.83
2024-02-16T12:06:27.597Z,11.89
2024-02-16T12:07:27.638Z,11.99
2024-02-16T12:08:27.589Z,12.11
2024-02-16T12:09:27.480Z,12.19
2024-02-16T12:10:27.486Z,12.26
2024-02-16T12:11:27.470Z,12.32
2024-02-16T12:12:27.481Z,12.37
2024-02-16T12:13:27.372Z,12.42
2024-02-16T12:14:27.384Z,12.46
2024-02-16T12:15:27.473Z,12.50
2024-02-16T12:16:27.362Z,12.55
2024-02-16T12:17:27.365Z,12.59
2024-02-16T12:18:27.625Z,12.63
2024-02-16T12:19:27.405Z,12.65
2024-02-16T12:20:27.320Z,12.67
2024-02-16T12:21:27.364Z,12.70
2024-02-16T12:22:27.312Z,12.77
2024-02-16T12:23:27.292Z,12.84
2024-02-16T12:24:27.305Z,12.90
2024-02-16T12:25:27.250Z,12.94
2024-02-16T12:26:27.226Z,12.96
2024-02-16T12:27:27.268Z,12.96
2024-02-16T12:28:27.225Z,12.98
2024-02-16T12:29:27.194Z,13.01
2024-02-16T12:30:27.289Z,13.04
2024-02-16T12:31:27.148Z,13.05
2024-02-16T12:32:27.200Z,13.05
2024-02-16T12:33:27.230Z,13.03
2024-02-16T12:34:27.303Z,13.01
2024-02-16T12:35:27.139Z,13.02
2024-02-16T12:36:27.094Z,13.05
2024-02-16T12:37:27.082Z,13.07
2024-02-16T12:38:27.090Z,13.08
2024-02-16T12:39:27.110Z,13.09
2024-02-16T12:40:27.056Z,13.12
2024-02-16T12:41:27.025Z,13.14
2024-02-16T12:42:27.147Z,13.16
2024-02-16T12:43:27.045Z,13.18
2024-02-16T12:44:27.061Z,13.20
2024-02-16T12:45:27.541Z,13.23
2024-02-16T12:46:26.983Z,13.27
2024-02-16T12:47:27.047Z,13.30
2024-02-16T12:48:27.129Z,13.32
2024-02-16T12:49:27.027Z,13.34
2024-02-16T12:50:26.961Z,13.34
2024-02-16T12:51:26.969Z,13.34
2024-02-16T12:52:26.920Z,13.33
2024-02-16T12:53:26.914Z,13.33
2024-02-16T12:54:27.074Z,13.31
2024-02-16T12:55:26.868Z,13.29
2024-02-16T12:56:26.856Z,13.28
2024-02-16T12:57:26.908Z,13.27
2024-02-16T12:58:26.883Z,13.28
2024-02-16T12:59:26.819Z,13.32
2024-02-16T13:00:26.850Z,13.38
2024-02-16T13:01:27.187Z,13.42
2024-02-16T13:02:26.873Z,13.43
2024-02-16T13:03:26.841Z,13.44
2024-02-16T13:04:26.785Z,13.45
2024-02-16T13:05:26.896Z,13.46
2024-02-16T13:06:29.200Z,13.46
2024-02-16T13:07:26.781Z,13.46
2024-02-16T13:08:26.764Z,13.50
2024-02-16T13:09:26.758Z,13.55
2024-02-16T13:10:26.664Z,13.58
2024-02-16T13:11:26.736Z,13.61
2024-02-16T13:12:26.643Z,13.63